sensor_id;sensor_type;location;lat;lon;timestamp;P1;durP1;ratioP1;P2;durP2;ratioP2
13805;SDS011;6974;53.606;9.872;2023-03-26T00:01:46;15.57;;;3.60;;
13805;SDS011;6974;53.606;9.872;2023-03-26T00:04:13;13.03;;;4.13;;
13805;SDS011;6974;53.606;9.872;2023-03-26T00:06:45;15.33;;;4.30;;
13805;SDS011;6974;53.606;9.872;2023-03-26T00:11:42;13.23;;;4.20;;
13805;SDS011;6974;53.606;9.872;2023-03-26T00:14:10;12.53;;;4.00;;
13805;SDS011;6974;53.606;9.872;2023-03-26T00:16:37;12.70;;;3.80;;
13805;SDS011;6974;53.606;9.872;2023-03-26T00:19:06;14.23;;;3.90;;
13805;SDS011;6974;53.606;9.872;2023-03-26T00:21:33;12.17;;;4.23;;
13805;SDS011;6974;53.606;9.872;2023-03-26T00:24:03;12.10;;;3.77;;
13805;SDS011;6974;53.606;9.872;2023-03-26T00:26:32;12.23;;;3.93;;
13805;SDS011;6974;53.606;9.872;2023-03-26T00:29:01;15.67;;;4.43;;
13805;SDS011;6974;53.606;9.872;2023-03-26T00:31:28;11.13;;;3.47;;
13805;SDS011;6974;53.606;9.872;2023-03-26T00:33:55;12.77;;;4.30;;
13805;SDS011;6974;53.606;9.872;2023-03-26T00:36:23;12.83;;;4.07;;
13805;SDS011;6974;53.606;9.872;2023-03-26T00:38:50;16.57;;;4.23;;
13805;SDS011;6974;53.606;9.872;2023-03-26T00:41:20;10.53;;;3.60;;
13805;SDS011;6974;53.606;9.872;2023-03-26T00:43:50;12.20;;;3.93;;
13805;SDS011;6974;53.606;9.872;2023-03-26T00:46:20;11.83;;;4.20;;
13805;SDS011;6974;53.606;9.872;2023-03-26T00:48:47;14.77;;;4.37;;
13805;SDS011;6974;53.606;9.872;2023-03-26T00:51:16;13.17;;;4.10;;
13805;SDS011;6974;53.606;9.872;2023-03-26T00:53:45;10.93;;;3.30;;
13805;SDS011;6974;53.606;9.872;2023-03-26T00:56:13;9.77;;;3.50;;
13805;SDS011;6974;53.606;9.872;2023-03-26T00:58:41;10.70;;;2.90;;
13805;SDS011;6974;53.606;9.872;2023-03-26T01:01:12;8.83;;;3.20;;
13805;SDS011;6974;53.606;9.872;2023-03-26T01:03:42;6.60;;;2.80;;
13805;SDS011;6974;53.606;9.872;2023-03-26T01:06:11;8.83;;;3.00;;
13805;SDS011;6974;53.606;9.872;2023-03-26T01:08:44;7.87;;;3.47;;
13805;SDS011;6974;53.606;9.872;2023-03-26T01:11:14;8.67;;;3.10;;
13805;SDS011;6974;53.606;9.872;2023-03-26T01:13:46;7.20;;;2.73;;
13805;SDS011;6974;53.606;9.872;2023-03-26T01:16:18;10.37;;;2.70;;
13805;SDS011;6974;53.606;9.872;2023-03-26T01:18:50;9.80;;;3.20;;
13805;SDS011;6974;53.606;9.872;2023-03-26T01:21:23;8.80;;;2.90;;
13805;SDS011;6974;53.606;9.872;2023-03-26T01:23:57;9.70;;;3.07;;
13805;SDS011;6974;53.606;9.872;2023-03-26T01:26:30;8.07;;;2.30;;
13805;SDS011;6974;53.606;9.872;2023-03-26T01:29:05;6.80;;;2.60;;
13805;SDS011;6974;53.606;9.872;2023-03-26T01:31:43;6.30;;;2.40;;
13805;SDS011;6974;53.606;9.872;2023-03-26T01:34:16;9.07;;;2.57;;
13805;SDS011;6974;53.606;9.872;2023-03-26T01:36:49;9.83;;;3.20;;
13805;SDS011;6974;53.606;9.872;2023-03-26T01:39:25;10.93;;;3.00;;
13805;SDS011;6974;53.606;9.872;2023-03-26T01:41:57;9.50;;;3.47;;
13805;SDS011;6974;53.606;9.872;2023-03-26T01:44:32;12.53;;;3.40;;
13805;SDS011;6974;53.606;9.872;2023-03-26T01:47:03;14.43;;;3.40;;
13805;SDS011;6974;53.606;9.872;2023-03-26T01:49:31;13.43;;;3.47;;
13805;SDS011;6974;53.606;9.872;2023-03-26T01:51:58;11.87;;;3.10;;
13805;SDS011;6974;53.606;9.872;2023-03-26T01:54:28;12.53;;;3.73;;
13805;SDS011;6974;53.606;9.872;2023-03-26T01:57:00;17.10;;;3.43;;
13805;SDS011;6974;53.606;9.872;2023-03-26T01:59:44;10.43;;;3.80;;
13805;SDS011;6974;53.606;9.872;2023-03-26T02:02:25;10.93;;;3.37;;
13805;SDS011;6974;53.606;9.872;2023-03-26T02:05:03;12.97;;;4.03;;
13805;SDS011;6974;53.606;9.872;2023-03-26T02:07:39;10.23;;;3.23;;
13805;SDS011;6974;53.606;9.872;2023-03-26T02:10:12;11.70;;;3.20;;
13805;SDS011;6974;53.606;9.872;2023-03-26T02:12:42;13.27;;;3.43;;
13805;SDS011;6974;53.606;9.872;2023-03-26T02:15:10;10.33;;;3.13;;
13805;SDS011;6974;53.606;9.872;2023-03-26T02:17:38;11.57;;;3.33;;
13805;SDS011;6974;53.606;9.872;2023-03-26T02:20:06;11.37;;;3.73;;
13805;SDS011;6974;53.606;9.872;2023-03-26T02:22:34;17.10;;;3.80;;
13805;SDS011;6974;53.606;9.872;2023-03-26T02:25:05;10.03;;;3.40;;
13805;SDS011;6974;53.606;9.872;2023-03-26T02:27:34;11.27;;;3.20;;
13805;SDS011;6974;53.606;9.872;2023-03-26T02:30:02;12.50;;;3.20;;
13805;SDS011;6974;53.606;9.872;2023-03-26T02:32:30;9.37;;;2.90;;
13805;SDS011;6974;53.606;9.872;2023-03-26T02:34:57;13.13;;;2.97;;
13805;SDS011;6974;53.606;9.872;2023-03-26T02:37:24;13.07;;;3.37;;
13805;SDS011;6974;53.606;9.872;2023-03-26T02:39:52;15.30;;;3.53;;
13805;SDS011;6974;53.606;9.872;2023-03-26T02:42:18;14.73;;;3.50;;
13805;SDS011;6974;53.606;9.872;2023-03-26T02:44:47;9.50;;;2.30;;
13805;SDS011;6974;53.606;9.872;2023-03-26T02:47:15;10.93;;;3.40;;
13805;SDS011;6974;53.606;9.872;2023-03-26T02:49:42;9.40;;;2.70;;
13805;SDS011;6974;53.606;9.872;2023-03-26T02:52:10;8.37;;;3.10;;
13805;SDS011;6974;53.606;9.872;2023-03-26T02:54:41;9.37;;;2.40;;
13805;SDS011;6974;53.606;9.872;2023-03-26T02:57:08;9.73;;;2.77;;
13805;SDS011;6974;53.606;9.872;2023-03-26T02:59:36;11.27;;;2.60;;
13805;SDS011;6974;53.606;9.872;2023-03-26T03:02:04;11.37;;;2.90;;
13805;SDS011;6974;53.606;9.872;2023-03-26T03:04:31;6.07;;;2.47;;
13805;SDS011;6974;53.606;9.872;2023-03-26T03:06:59;9.57;;;2.60;;
13805;SDS011;6974;53.606;9.872;2023-03-26T03:09:26;9.77;;;3.37;;
13805;SDS011;6974;53.606;9.872;2023-03-26T03:11:53;9.80;;;3.17;;
13805;SDS011;6974;53.606;9.872;2023-03-26T03:14:20;7.23;;;2.37;;
13805;SDS011;6974;53.606;9.872;2023-03-26T03:16:47;7.60;;;2.30;;
13805;SDS011;6974;53.606;9.872;2023-03-26T03:19:15;7.40;;;2.37;;
13805;SDS011;6974;53.606;9.872;2023-03-26T03:21:42;10.73;;;2.40;;
13805;SDS011;6974;53.606;9.872;2023-03-26T03:24:09;7.33;;;2.73;;
13805;SDS011;6974;53.606;9.872;2023-03-26T03:26:38;6.07;;;2.20;;
13805;SDS011;6974;53.606;9.872;2023-03-26T03:29:06;7.27;;;2.60;;
13805;SDS011;6974;53.606;9.872;2023-03-26T03:31:36;7.13;;;2.47;;
13805;SDS011;6974;53.606;9.872;2023-03-26T03:34:03;8.47;;;2.77;;
13805;SDS011;6974;53.606;9.872;2023-03-26T03:36:31;10.87;;;2.90;;
13805;SDS011;6974;53.606;9.872;2023-03-26T03:39:02;12.20;;;2.50;;
13805;SDS011;6974;53.606;9.872;2023-03-26T03:41:29;7.37;;;2.50;;
13805;SDS011;6974;53.606;9.872;2023-03-26T03:43:56;8.73;;;2.50;;
13805;SDS011;6974;53.606;9.872;2023-03-26T03:46:26;8.10;;;2.60;;
13805;SDS011;6974;53.606;9.872;2023-03-26T03:48:53;8.50;;;2.60;;
13805;SDS011;6974;53.606;9.872;2023-03-26T03:51:20;8.70;;;2.67;;
13805;SDS011;6974;53.606;9.872;2023-03-26T03:53:49;7.53;;;2.63;;
13805;SDS011;6974;53.606;9.872;2023-03-26T03:56:16;8.53;;;2.50;;
13805;SDS011;6974;53.606;9.872;2023-03-26T03:58:48;9.47;;;2.83;;
13805;SDS011;6974;53.606;9.872;2023-03-26T04:01:15;10.83;;;2.60;;
13805;SDS011;6974;53.606;9.872;2023-03-26T04:03:46;12.00;;;3.20;;
13805;SDS011;6974;53.606;9.872;2023-03-26T04:06:13;8.37;;;2.60;;
13805;SDS011;6974;53.606;9.872;2023-03-26T04:08:43;14.97;;;3.93;;
13805;SDS011;6974;53.606;9.872;2023-03-26T04:11:12;12.07;;;3.20;;
13805;SDS011;6974;53.606;9.872;2023-03-26T04:13:42;9.07;;;2.80;;
13805;SDS011;6974;53.606;9.872;2023-03-26T04:16:09;11.90;;;2.93;;
13805;SDS011;6974;53.606;9.872;2023-03-26T04:18:36;12.90;;;2.90;;
13805;SDS011;6974;53.606;9.872;2023-03-26T04:21:04;12.03;;;3.40;;
13805;SDS011;6974;53.606;9.872;2023-03-26T04:23:31;11.53;;;3.10;;
13805;SDS011;6974;53.606;9.872;2023-03-26T04:26:00;10.50;;;2.77;;
13805;SDS011;6974;53.606;9.872;2023-03-26T04:28:32;14.10;;;4.67;;
13805;SDS011;6974;53.606;9.872;2023-03-26T04:31:07;12.90;;;3.20;;
13805;SDS011;6974;53.606;9.872;2023-03-26T04:33:38;5.50;;;2.57;;
13805;SDS011;6974;53.606;9.872;2023-03-26T04:36:10;8.27;;;2.70;;
13805;SDS011;6974;53.606;9.872;2023-03-26T04:38:39;10.03;;;2.83;;
13805;SDS011;6974;53.606;9.872;2023-03-26T04:41:08;8.67;;;3.03;;
13805;SDS011;6974;53.606;9.872;2023-03-26T04:43:39;10.33;;;2.50;;
13805;SDS011;6974;53.606;9.872;2023-03-26T04:46:11;7.87;;;2.40;;
13805;SDS011;6974;53.606;9.872;2023-03-26T04:48:38;8.27;;;2.47;;
13805;SDS011;6974;53.606;9.872;2023-03-26T04:51:05;9.27;;;2.40;;
13805;SDS011;6974;53.606;9.872;2023-03-26T04:53:33;8.83;;;2.67;;
13805;SDS011;6974;53.606;9.872;2023-03-26T04:56:04;6.93;;;2.70;;
13805;SDS011;6974;53.606;9.872;2023-03-26T04:58:41;7.47;;;2.27;;
13805;SDS011;6974;53.606;9.872;2023-03-26T05:01:08;5.57;;;2.30;;
13805;SDS011;6974;53.606;9.872;2023-03-26T05:03:36;8.90;;;2.50;;
13805;SDS011;6974;53.606;9.872;2023-03-26T05:06:05;6.53;;;2.30;;
13805;SDS011;6974;53.606;9.872;2023-03-26T05:08:33;9.30;;;2.70;;
13805;SDS011;6974;53.606;9.872;2023-03-26T05:11:00;8.27;;;2.43;;
13805;SDS011;6974;53.606;9.872;2023-03-26T05:13:27;9.73;;;2.20;;
13805;SDS011;6974;53.606;9.872;2023-03-26T05:15:59;8.37;;;2.63;;
13805;SDS011;6974;53.606;9.872;2023-03-26T05:18:26;7.07;;;2.10;;
13805;SDS011;6974;53.606;9.872;2023-03-26T05:20:53;9.17;;;1.90;;
13805;SDS011;6974;53.606;9.872;2023-03-26T05:23:21;6.40;;;2.20;;
13805;SDS011;6974;53.606;9.872;2023-03-26T05:25:48;7.87;;;2.37;;
13805;SDS011;6974;53.606;9.872;2023-03-26T05:28:15;9.00;;;2.53;;
13805;SDS011;6974;53.606;9.872;2023-03-26T05:30:45;6.27;;;2.70;;
13805;SDS011;6974;53.606;9.872;2023-03-26T05:33:13;7.70;;;2.60;;
13805;SDS011;6974;53.606;9.872;2023-03-26T05:35:41;10.37;;;2.30;;
13805;SDS011;6974;53.606;9.872;2023-03-26T05:38:08;7.27;;;2.20;;
13805;SDS011;6974;53.606;9.872;2023-03-26T05:40:36;8.73;;;2.40;;
13805;SDS011;6974;53.606;9.872;2023-03-26T05:43:03;10.30;;;2.80;;
13805;SDS011;6974;53.606;9.872;2023-03-26T05:45:32;9.00;;;2.10;;
13805;SDS011;6974;53.606;9.872;2023-03-26T05:47:59;6.40;;;2.40;;
13805;SDS011;6974;53.606;9.872;2023-03-26T05:50:27;6.43;;;2.83;;
13805;SDS011;6974;53.606;9.872;2023-03-26T05:52:54;8.63;;;2.50;;
13805;SDS011;6974;53.606;9.872;2023-03-26T05:55:21;7.70;;;2.50;;
13805;SDS011;6974;53.606;9.872;2023-03-26T05:57:48;8.43;;;3.20;;
13805;SDS011;6974;53.606;9.872;2023-03-26T06:00:15;8.17;;;2.93;;
13805;SDS011;6974;53.606;9.872;2023-03-26T06:02:43;8.93;;;2.80;;
13805;SDS011;6974;53.606;9.872;2023-03-26T06:05:10;13.90;;;3.37;;
13805;SDS011;6974;53.606;9.872;2023-03-26T06:07:39;10.30;;;3.10;;
13805;SDS011;6974;53.606;9.872;2023-03-26T06:10:06;10.03;;;3.20;;
13805;SDS011;6974;53.606;9.872;2023-03-26T06:12:34;10.70;;;3.80;;
13805;SDS011;6974;53.606;9.872;2023-03-26T06:15:02;8.20;;;2.73;;
13805;SDS011;6974;53.606;9.872;2023-03-26T06:17:29;9.53;;;3.07;;
13805;SDS011;6974;53.606;9.872;2023-03-26T06:19:56;12.07;;;3.00;;
13805;SDS011;6974;53.606;9.872;2023-03-26T06:22:23;13.40;;;4.23;;
13805;SDS011;6974;53.606;9.872;2023-03-26T06:24:51;9.53;;;2.93;;
13805;SDS011;6974;53.606;9.872;2023-03-26T06:27:18;10.70;;;2.77;;
13805;SDS011;6974;53.606;9.872;2023-03-26T06:29:45;10.73;;;3.10;;
13805;SDS011;6974;53.606;9.872;2023-03-26T06:32:13;10.10;;;2.60;;
13805;SDS011;6974;53.606;9.872;2023-03-26T06:34:43;6.40;;;2.80;;
13805;SDS011;6974;53.606;9.872;2023-03-26T06:37:10;8.90;;;2.47;;
13805;SDS011;6974;53.606;9.872;2023-03-26T06:39:37;8.20;;;2.63;;
13805;SDS011;6974;53.606;9.872;2023-03-26T06:42:05;9.00;;;2.77;;
13805;SDS011;6974;53.606;9.872;2023-03-26T06:44:32;7.43;;;2.40;;
13805;SDS011;6974;53.606;9.872;2023-03-26T06:47:01;14.23;;;3.27;;
13805;SDS011;6974;53.606;9.872;2023-03-26T06:49:28;9.40;;;3.10;;
13805;SDS011;6974;53.606;9.872;2023-03-26T06:51:55;11.17;;;2.73;;
13805;SDS011;6974;53.606;9.872;2023-03-26T06:54:22;11.60;;;3.10;;
13805;SDS011;6974;53.606;9.872;2023-03-26T06:56:52;10.37;;;3.00;;
13805;SDS011;6974;53.606;9.872;2023-03-26T06:59:21;10.80;;;3.30;;
13805;SDS011;6974;53.606;9.872;2023-03-26T07:01:48;15.70;;;4.30;;
13805;SDS011;6974;53.606;9.872;2023-03-26T07:04:15;11.70;;;3.57;;
13805;SDS011;6974;53.606;9.872;2023-03-26T07:06:42;11.13;;;3.00;;
13805;SDS011;6974;53.606;9.872;2023-03-26T07:09:10;9.10;;;3.17;;
13805;SDS011;6974;53.606;9.872;2023-03-26T07:11:36;11.67;;;3.07;;
13805;SDS011;6974;53.606;9.872;2023-03-26T07:14:04;9.57;;;2.93;;
13805;SDS011;6974;53.606;9.872;2023-03-26T07:16:33;11.73;;;2.90;;
13805;SDS011;6974;53.606;9.872;2023-03-26T07:19:01;14.53;;;3.47;;
13805;SDS011;6974;53.606;9.872;2023-03-26T07:21:28;13.77;;;3.50;;
13805;SDS011;6974;53.606;9.872;2023-03-26T07:23:55;10.17;;;3.10;;
13805;SDS011;6974;53.606;9.872;2023-03-26T07:26:28;12.43;;;3.30;;
13805;SDS011;6974;53.606;9.872;2023-03-26T07:29:15;11.83;;;3.90;;
13805;SDS011;6974;53.606;9.872;2023-03-26T07:35:19;10.73;;;3.37;;
13805;SDS011;6974;53.606;9.872;2023-03-26T07:38:01;20.00;;;4.33;;
13805;SDS011;6974;53.606;9.872;2023-03-26T07:40:45;16.77;;;3.40;;
13805;SDS011;6974;53.606;9.872;2023-03-26T07:43:24;17.00;;;4.03;;
13805;SDS011;6974;53.606;9.872;2023-03-26T07:46:15;19.60;;;4.43;;
13805;SDS011;6974;53.606;9.872;2023-03-26T07:49:12;15.57;;;4.57;;
13805;SDS011;6974;53.606;9.872;2023-03-26T07:51:58;14.97;;;3.63;;
13805;SDS011;6974;53.606;9.872;2023-03-26T07:55:18;12.03;;;3.30;;
13805;SDS011;6974;53.606;9.872;2023-03-26T07:58:16;11.67;;;3.50;;
13805;SDS011;6974;53.606;9.872;2023-03-26T08:00:59;20.17;;;4.27;;
13805;SDS011;6974;53.606;9.872;2023-03-26T08:03:39;14.43;;;4.00;;
13805;SDS011;6974;53.606;9.872;2023-03-26T08:06:34;14.03;;;3.83;;
13805;SDS011;6974;53.606;9.872;2023-03-26T08:09:05;15.23;;;3.53;;
13805;SDS011;6974;53.606;9.872;2023-03-26T08:11:41;14.60;;;3.50;;
13805;SDS011;6974;53.606;9.872;2023-03-26T08:14:19;15.97;;;4.00;;
13805;SDS011;6974;53.606;9.872;2023-03-26T08:16:53;19.57;;;3.63;;
13805;SDS011;6974;53.606;9.872;2023-03-26T08:19:29;13.23;;;3.20;;
13805;SDS011;6974;53.606;9.872;2023-03-26T08:22:09;14.13;;;4.13;;
13805;SDS011;6974;53.606;9.872;2023-03-26T08:24:42;12.93;;;4.23;;
13805;SDS011;6974;53.606;9.872;2023-03-26T08:27:35;14.97;;;3.70;;
13805;SDS011;6974;53.606;9.872;2023-03-26T08:30:13;14.17;;;3.90;;
13805;SDS011;6974;53.606;9.872;2023-03-26T08:32:43;18.87;;;4.43;;
13805;SDS011;6974;53.606;9.872;2023-03-26T08:35:17;15.03;;;3.73;;
13805;SDS011;6974;53.606;9.872;2023-03-26T08:37:46;12.80;;;3.67;;
13805;SDS011;6974;53.606;9.872;2023-03-26T08:40:14;16.43;;;4.23;;
13805;SDS011;6974;53.606;9.872;2023-03-26T08:42:53;17.83;;;4.00;;
13805;SDS011;6974;53.606;9.872;2023-03-26T08:45:47;18.60;;;3.90;;
13805;SDS011;6974;53.606;9.872;2023-03-26T08:49:02;19.53;;;4.10;;
13805;SDS011;6974;53.606;9.872;2023-03-26T08:55:04;17.37;;;4.07;;
13805;SDS011;6974;53.606;9.872;2023-03-26T08:58:13;15.60;;;3.70;;
13805;SDS011;6974;53.606;9.872;2023-03-26T09:01:01;14.57;;;3.87;;
13805;SDS011;6974;53.606;9.872;2023-03-26T09:03:57;13.53;;;3.77;;
13805;SDS011;6974;53.606;9.872;2023-03-26T09:06:54;13.33;;;3.60;;
13805;SDS011;6974;53.606;9.872;2023-03-26T09:09:49;13.37;;;3.70;;
13805;SDS011;6974;53.606;9.872;2023-03-26T09:12:56;17.50;;;4.33;;
13805;SDS011;6974;53.606;9.872;2023-03-26T09:19:09;14.67;;;4.10;;
13805;SDS011;6974;53.606;9.872;2023-03-26T09:22:09;16.77;;;5.37;;
13805;SDS011;6974;53.606;9.872;2023-03-26T09:25:00;12.90;;;3.70;;
13805;SDS011;6974;53.606;9.872;2023-03-26T09:27:57;16.17;;;3.50;;
13805;SDS011;6974;53.606;9.872;2023-03-26T09:30:58;14.37;;;3.57;;
13805;SDS011;6974;53.606;9.872;2023-03-26T09:33:52;10.47;;;3.53;;
13805;SDS011;6974;53.606;9.872;2023-03-26T09:39:21;14.67;;;4.13;;
13805;SDS011;6974;53.606;9.872;2023-03-26T09:42:04;14.70;;;3.90;;
13805;SDS011;6974;53.606;9.872;2023-03-26T09:44:54;12.20;;;3.17;;
13805;SDS011;6974;53.606;9.872;2023-03-26T09:50:43;11.17;;;3.30;;
13805;SDS011;6974;53.606;9.872;2023-03-26T09:53:39;12.03;;;3.57;;
13805;SDS011;6974;53.606;9.872;2023-03-26T09:56:26;13.63;;;3.77;;
13805;SDS011;6974;53.606;9.872;2023-03-26T10:01:58;12.37;;;3.83;;
13805;SDS011;6974;53.606;9.872;2023-03-26T10:04:43;15.23;;;3.93;;
13805;SDS011;6974;53.606;9.872;2023-03-26T10:10:29;14.77;;;3.20;;
13805;SDS011;6974;53.606;9.872;2023-03-26T10:13:07;17.73;;;4.27;;
13805;SDS011;6974;53.606;9.872;2023-03-26T10:15:52;13.73;;;3.43;;
13805;SDS011;6974;53.606;9.872;2023-03-26T10:18:35;15.90;;;4.17;;
13805;SDS011;6974;53.606;9.872;2023-03-26T10:21:15;14.80;;;3.87;;
13805;SDS011;6974;53.606;9.872;2023-03-26T10:23:54;11.53;;;3.50;;
13805;SDS011;6974;53.606;9.872;2023-03-26T10:29:32;10.77;;;3.53;;
13805;SDS011;6974;53.606;9.872;2023-03-26T10:32:21;12.07;;;4.00;;
13805;SDS011;6974;53.606;9.872;2023-03-26T10:35:00;12.67;;;3.67;;
13805;SDS011;6974;53.606;9.872;2023-03-26T10:37:37;14.30;;;3.70;;
13805;SDS011;6974;53.606;9.872;2023-03-26T10:40:15;6.80;;;2.73;;
13805;SDS011;6974;53.606;9.872;2023-03-26T10:45:44;9.50;;;3.67;;
13805;SDS011;6974;53.606;9.872;2023-03-26T10:48:25;18.53;;;3.60;;
13805;SDS011;6974;53.606;9.872;2023-03-26T10:51:21;10.37;;;3.27;;
13805;SDS011;6974;53.606;9.872;2023-03-26T10:53:57;12.57;;;3.50;;
13805;SDS011;6974;53.606;9.872;2023-03-26T10:56:30;9.13;;;3.10;;
13805;SDS011;6974;53.606;9.872;2023-03-26T10:59:00;15.47;;;3.07;;
13805;SDS011;6974;53.606;9.872;2023-03-26T11:01:34;11.50;;;3.43;;
13805;SDS011;6974;53.606;9.872;2023-03-26T11:04:10;12.00;;;3.33;;
13805;SDS011;6974;53.606;9.872;2023-03-26T11:06:54;13.97;;;3.87;;
13805;SDS011;6974;53.606;9.872;2023-03-26T11:09:32;10.87;;;3.73;;
13805;SDS011;6974;53.606;9.872;2023-03-26T11:12:08;12.53;;;3.63;;
13805;SDS011;6974;53.606;9.872;2023-03-26T11:14:41;9.83;;;3.17;;
13805;SDS011;6974;53.606;9.872;2023-03-26T11:17:14;9.43;;;3.23;;
13805;SDS011;6974;53.606;9.872;2023-03-26T11:19:48;10.50;;;3.50;;
13805;SDS011;6974;53.606;9.872;2023-03-26T11:22:24;15.30;;;3.40;;
13805;SDS011;6974;53.606;9.872;2023-03-26T11:25:02;14.07;;;3.50;;
13805;SDS011;6974;53.606;9.872;2023-03-26T11:27:43;11.07;;;3.70;;
13805;SDS011;6974;53.606;9.872;2023-03-26T11:30:20;13.37;;;3.60;;
13805;SDS011;6974;53.606;9.872;2023-03-26T11:32:59;10.63;;;3.40;;
13805;SDS011;6974;53.606;9.872;2023-03-26T11:35:29;10.50;;;3.87;;
13805;SDS011;6974;53.606;9.872;2023-03-26T11:38:02;12.20;;;3.30;;
13805;SDS011;6974;53.606;9.872;2023-03-26T11:40:32;15.67;;;3.80;;
13805;SDS011;6974;53.606;9.872;2023-03-26T11:43:03;8.57;;;3.67;;
13805;SDS011;6974;53.606;9.872;2023-03-26T11:45:33;12.60;;;3.37;;
13805;SDS011;6974;53.606;9.872;2023-03-26T11:48:04;9.17;;;3.40;;
13805;SDS011;6974;53.606;9.872;2023-03-26T11:50:38;12.63;;;3.80;;
13805;SDS011;6974;53.606;9.872;2023-03-26T11:53:12;13.47;;;3.83;;
13805;SDS011;6974;53.606;9.872;2023-03-26T11:55:43;8.70;;;3.30;;
13805;SDS011;6974;53.606;9.872;2023-03-26T11:58:20;10.77;;;3.20;;
13805;SDS011;6974;53.606;9.872;2023-03-26T12:00:52;11.97;;;3.63;;
13805;SDS011;6974;53.606;9.872;2023-03-26T12:03:21;9.37;;;3.00;;
13805;SDS011;6974;53.606;9.872;2023-03-26T12:05:49;9.40;;;3.10;;
13805;SDS011;6974;53.606;9.872;2023-03-26T12:08:27;7.80;;;3.70;;
13805;SDS011;6974;53.606;9.872;2023-03-26T12:10:59;9.07;;;3.23;;
13805;SDS011;6974;53.606;9.872;2023-03-26T12:13:32;12.47;;;4.20;;
13805;SDS011;6974;53.606;9.872;2023-03-26T12:16:05;9.20;;;3.80;;
13805;SDS011;6974;53.606;9.872;2023-03-26T12:18:41;11.40;;;3.77;;
13805;SDS011;6974;53.606;9.872;2023-03-26T12:21:13;8.17;;;2.90;;
13805;SDS011;6974;53.606;9.872;2023-03-26T12:23:44;11.20;;;3.47;;
13805;SDS011;6974;53.606;9.872;2023-03-26T12:26:27;9.80;;;3.37;;
13805;SDS011;6974;53.606;9.872;2023-03-26T12:28:58;21.17;;;4.03;;
13805;SDS011;6974;53.606;9.872;2023-03-26T12:31:39;11.33;;;3.50;;
13805;SDS011;6974;53.606;9.872;2023-03-26T12:34:12;13.27;;;3.43;;
13805;SDS011;6974;53.606;9.872;2023-03-26T12:36:45;10.70;;;3.73;;
13805;SDS011;6974;53.606;9.872;2023-03-26T12:42:04;7.93;;;3.27;;
13805;SDS011;6974;53.606;9.872;2023-03-26T12:44:50;16.23;;;3.80;;
13805;SDS011;6974;53.606;9.872;2023-03-26T12:47:21;11.07;;;3.67;;
13805;SDS011;6974;53.606;9.872;2023-03-26T12:49:51;15.43;;;3.70;;
13805;SDS011;6974;53.606;9.872;2023-03-26T12:52:23;14.17;;;4.50;;
13805;SDS011;6974;53.606;9.872;2023-03-26T12:55:05;11.73;;;3.30;;
13805;SDS011;6974;53.606;9.872;2023-03-26T12:57:41;10.97;;;3.63;;
13805;SDS011;6974;53.606;9.872;2023-03-26T13:00:24;11.07;;;3.27;;
13805;SDS011;6974;53.606;9.872;2023-03-26T13:03:03;11.47;;;3.57;;
13805;SDS011;6974;53.606;9.872;2023-03-26T13:08:37;8.47;;;3.03;;
13805;SDS011;6974;53.606;9.872;2023-03-26T13:11:21;8.53;;;2.83;;
13805;SDS011;6974;53.606;9.872;2023-03-26T13:17:07;11.50;;;3.43;;
13805;SDS011;6974;53.606;9.872;2023-03-26T13:19:39;13.03;;;3.90;;
13805;SDS011;6974;53.606;9.872;2023-03-26T13:22:14;8.63;;;3.33;;
13805;SDS011;6974;53.606;9.872;2023-03-26T13:24:50;12.67;;;3.70;;
13805;SDS011;6974;53.606;9.872;2023-03-26T13:27:28;12.20;;;3.57;;
13805;SDS011;6974;53.606;9.872;2023-03-26T13:30:11;9.50;;;3.40;;
13805;SDS011;6974;53.606;9.872;2023-03-26T13:32:53;9.27;;;3.37;;
13805;SDS011;6974;53.606;9.872;2023-03-26T13:35:28;8.93;;;3.23;;
13805;SDS011;6974;53.606;9.872;2023-03-26T13:38:01;9.07;;;3.77;;
13805;SDS011;6974;53.606;9.872;2023-03-26T13:40:35;10.13;;;3.27;;
13805;SDS011;6974;53.606;9.872;2023-03-26T13:43:16;12.00;;;3.67;;
13805;SDS011;6974;53.606;9.872;2023-03-26T13:45:55;10.93;;;3.30;;
13805;SDS011;6974;53.606;9.872;2023-03-26T13:48:26;11.73;;;3.93;;
13805;SDS011;6974;53.606;9.872;2023-03-26T13:51:00;8.53;;;3.93;;
13805;SDS011;6974;53.606;9.872;2023-03-26T13:53:33;9.90;;;3.33;;
13805;SDS011;6974;53.606;9.872;2023-03-26T13:56:06;9.67;;;3.20;;
13805;SDS011;6974;53.606;9.872;2023-03-26T13:58:42;10.97;;;3.70;;
13805;SDS011;6974;53.606;9.872;2023-03-26T14:01:13;9.43;;;3.20;;
13805;SDS011;6974;53.606;9.872;2023-03-26T14:03:47;8.47;;;3.30;;
13805;SDS011;6974;53.606;9.872;2023-03-26T14:06:26;11.93;;;3.70;;
13805;SDS011;6974;53.606;9.872;2023-03-26T14:09:01;10.10;;;3.07;;
13805;SDS011;6974;53.606;9.872;2023-03-26T14:11:36;9.80;;;3.77;;
13805;SDS011;6974;53.606;9.872;2023-03-26T14:14:16;9.93;;;3.40;;
13805;SDS011;6974;53.606;9.872;2023-03-26T14:16:49;9.43;;;3.20;;
13805;SDS011;6974;53.606;9.872;2023-03-26T14:19:32;11.17;;;3.47;;
13805;SDS011;6974;53.606;9.872;2023-03-26T14:22:29;9.30;;;3.50;;
13805;SDS011;6974;53.606;9.872;2023-03-26T14:25:12;14.40;;;3.10;;
13805;SDS011;6974;53.606;9.872;2023-03-26T14:27:54;10.03;;;3.17;;
13805;SDS011;6974;53.606;9.872;2023-03-26T14:33:57;7.53;;;3.10;;
13805;SDS011;6974;53.606;9.872;2023-03-26T14:36:40;9.30;;;3.60;;
13805;SDS011;6974;53.606;9.872;2023-03-26T14:39:25;11.13;;;3.37;;
13805;SDS011;6974;53.606;9.872;2023-03-26T14:42:06;12.57;;;3.20;;
13805;SDS011;6974;53.606;9.872;2023-03-26T14:44:46;9.53;;;3.50;;
13805;SDS011;6974;53.606;9.872;2023-03-26T14:47:38;9.67;;;3.70;;
13805;SDS011;6974;53.606;9.872;2023-03-26T14:50:29;9.13;;;3.40;;
13805;SDS011;6974;53.606;9.872;2023-03-26T14:53:11;11.03;;;3.80;;
13805;SDS011;6974;53.606;9.872;2023-03-26T14:55:48;9.90;;;3.90;;
13805;SDS011;6974;53.606;9.872;2023-03-26T15:05:07;8.33;;;3.20;;
13805;SDS011;6974;53.606;9.872;2023-03-26T15:11:15;14.80;;;3.70;;
13805;SDS011;6974;53.606;9.872;2023-03-26T15:13:52;12.30;;;2.93;;
13805;SDS011;6974;53.606;9.872;2023-03-26T15:19:52;9.27;;;3.40;;
13805;SDS011;6974;53.606;9.872;2023-03-26T15:22:50;9.43;;;3.30;;
13805;SDS011;6974;53.606;9.872;2023-03-26T15:29:16;11.03;;;3.83;;
13805;SDS011;6974;53.606;9.872;2023-03-26T15:35:30;9.50;;;3.43;;
13805;SDS011;6974;53.606;9.872;2023-03-26T15:38:36;13.87;;;3.60;;
13805;SDS011;6974;53.606;9.872;2023-03-26T15:41:17;12.67;;;3.57;;
13805;SDS011;6974;53.606;9.872;2023-03-26T15:46:53;9.70;;;3.07;;
13805;SDS011;6974;53.606;9.872;2023-03-26T15:49:41;10.97;;;3.03;;
13805;SDS011;6974;53.606;9.872;2023-03-26T15:52:17;12.13;;;3.27;;
13805;SDS011;6974;53.606;9.872;2023-03-26T15:54:52;8.30;;;3.10;;
13805;SDS011;6974;53.606;9.872;2023-03-26T15:57:27;10.37;;;3.53;;
13805;SDS011;6974;53.606;9.872;2023-03-26T16:02:53;7.63;;;2.37;;
13805;SDS011;6974;53.606;9.872;2023-03-26T16:05:42;9.63;;;2.70;;
13805;SDS011;6974;53.606;9.872;2023-03-26T16:08:27;13.53;;;3.57;;
13805;SDS011;6974;53.606;9.872;2023-03-26T16:11:03;10.80;;;3.20;;
13805;SDS011;6974;53.606;9.872;2023-03-26T16:13:36;9.13;;;2.50;;
13805;SDS011;6974;53.606;9.872;2023-03-26T16:16:19;8.03;;;2.70;;
13805;SDS011;6974;53.606;9.872;2023-03-26T16:18:54;6.77;;;2.50;;
13805;SDS011;6974;53.606;9.872;2023-03-26T16:21:35;7.93;;;2.63;;
13805;SDS011;6974;53.606;9.872;2023-03-26T16:24:27;8.20;;;2.70;;
13805;SDS011;6974;53.606;9.872;2023-03-26T16:27:03;6.53;;;2.60;;
13805;SDS011;6974;53.606;9.872;2023-03-26T16:30:07;10.13;;;2.87;;
13805;SDS011;6974;53.606;9.872;2023-03-26T16:32:57;9.60;;;3.10;;
13805;SDS011;6974;53.606;9.872;2023-03-26T16:35:38;7.80;;;2.50;;
13805;SDS011;6974;53.606;9.872;2023-03-26T16:38:11;10.40;;;2.87;;
13805;SDS011;6974;53.606;9.872;2023-03-26T16:40:52;8.57;;;2.63;;
13805;SDS011;6974;53.606;9.872;2023-03-26T16:46:17;6.83;;;2.60;;
13805;SDS011;6974;53.606;9.872;2023-03-26T16:48:54;9.30;;;2.73;;
13805;SDS011;6974;53.606;9.872;2023-03-26T16:51:24;9.00;;;3.10;;